Time;durP1;ratioP1;P1;durP2;ratioP2;P2;SDS_P1;SDS_P2;PMS_P1;PMS_P2;Temp;Humidity;BMP_temperature;BMP_pressure;BME280_temperature;BME280_humidity;BME280_pressure;Samples;Min_cycle;Max_cycle;Signal;HPM_P1;HPM_P2
2021/10/10 00:01:23;;;;;;;2.27;1.40;;;7.00;98.00;;;;;;5052129;28;20497;-69
2021/10/10 00:03:51;;;;;;;1.20;1.00;;;6.90;98.00;;;;;;5052126;28;20450;-69
2021/10/10 00:06:19;;;;;;;1.80;1.43;;;6.80;98.00;;;;;;5052072;28;20463;-68
2021/10/10 00:08:46;;;;;;;1.70;1.47;;;6.60;98.00;;;;;;5050186;28;20509;-70
2021/10/10 00:11:13;;;;;;;1.40;1.30;;;6.60;98.00;;;;;;5052020;28;20490;-68
2021/10/10 00:13:40;;;;;;;1.20;1.20;;;6.60;98.00;;;;;;5051615;28;20809;-69
2021/10/10 00:16:07;;;;;;;1.40;1.40;;;6.60;98.00;;;;;;5051919;28;20527;-68
2021/10/10 00:18:35;;;;;;;3.73;1.57;;;6.70;98.00;;;;;;5051750;28;20454;-69
2021/10/10 00:21:04;;;;;;;2.00;1.87;;;6.70;98.00;;;;;;5051705;28;20964;-68
2021/10/10 00:23:31;;;;;;;1.50;1.30;;;6.80;98.00;;;;;;5051463;28;20508;-69
2021/10/10 00:25:58;;;;;;;3.00;1.40;;;6.70;98.00;;;;;;5051473;28;20508;-70
2021/10/10 00:28:25;;;;;;;2.17;1.83;;;6.60;98.00;;;;;;5051516;28;20569;-69
2021/10/10 00:30:59;;;;;;;11.03;1.73;;;6.50;98.00;;;;;;5050998;28;20523;-69
2021/10/10 00:33:26;;;;;;;1.73;1.30;;;6.30;98.00;;;;;;5051217;28;20467;-69
2021/10/10 00:35:53;;;;;;;2.37;1.70;;;6.30;98.00;;;;;;5051317;28;21020;-69
2021/10/10 00:38:22;;;;;;;1.20;1.13;;;6.40;98.00;;;;;;5051605;28;20506;-70
2021/10/10 00:40:49;;;;;;;1.70;1.40;;;6.30;98.00;;;;;;5051493;28;20450;-69
2021/10/10 00:43:17;;;;;;;5.43;1.97;;;6.20;98.00;;;;;;5051525;28;21013;-69
2021/10/10 00:45:47;;;;;;;1.30;1.20;;;6.20;98.00;;;;;;5051388;28;20517;-68
2021/10/10 00:48:14;;;;;;;1.20;1.10;;;6.10;98.00;;;;;;5051627;28;20486;-69
2021/10/10 00:50:41;;;;;;;1.40;1.30;;;6.20;98.00;;;;;;5051411;28;20566;-70
2021/10/10 00:53:09;;;;;;;1.20;1.20;;;6.00;98.00;;;;;;5051426;28;21021;-70
2021/10/10 00:55:37;;;;;;;1.30;1.30;;;6.20;98.00;;;;;;5051319;28;20579;-69
2021/10/10 00:58:07;;;;;;;2.03;1.70;;;6.10;98.00;;;;;;5051587;28;20492;-68
2021/10/10 01:00:34;;;;;;;1.20;1.10;;;6.30;98.00;;;;;;5051394;28;20842;-70
2021/10/10 01:03:04;;;;;;;2.90;1.40;;;6.30;98.00;;;;;;5051450;28;20487;-69
2021/10/10 01:05:31;;;;;;;2.23;2.03;;;6.20;98.00;;;;;;5051268;28;20556;-69
2021/10/10 01:07:58;;;;;;;1.20;1.17;;;6.10;98.00;;;;;;5051393;28;20546;-69
2021/10/10 01:10:25;;;;;;;1.40;1.10;;;6.00;98.00;;;;;;5051451;28;20607;-69
2021/10/10 01:12:54;;;;;;;1.87;1.50;;;5.90;98.00;;;;;;5051321;28;20487;-69
2021/10/10 01:15:21;;;;;;;2.47;2.23;;;5.70;98.00;;;;;;5051081;28;20592;-69
2021/10/10 01:17:50;;;;;;;1.60;1.17;;;5.70;98.00;;;;;;5033597;28;20547;-70
2021/10/10 01:20:23;;;;;;;1.77;1.67;;;5.70;98.00;;;;;;5051225;28;20466;-69
2021/10/10 01:22:52;;;;;;;1.20;1.10;;;5.70;98.00;;;;;;5034077;28;20455;-69
2021/10/10 01:25:19;;;;;;;3.70;1.90;;;5.90;98.00;;;;;;5051092;28;20497;-69
2021/10/10 01:27:46;;;;;;;1.20;1.10;;;5.90;98.00;;;;;;5051238;28;20506;-69
2021/10/10 01:30:14;;;;;;;1.63;1.40;;;5.90;98.00;;;;;;5051333;28;20515;-69
2021/10/10 01:32:41;;;;;;;1.80;1.40;;;6.00;98.00;;;;;;5051086;28;20447;-69
2021/10/10 01:35:12;;;;;;;2.47;1.40;;;5.90;98.00;;;;;;5050947;28;20482;-70
2021/10/10 01:37:39;;;;;;;2.27;1.43;;;5.80;98.00;;;;;;5051100;28;20460;-69
2021/10/10 01:40:09;;;;;;;1.73;1.67;;;5.80;98.00;;;;;;5050807;28;20488;-69
2021/10/10 01:42:36;;;;;;;1.20;1.10;;;5.90;98.00;;;;;;5053396;28;20454;-70
2021/10/10 01:45:03;;;;;;;1.20;1.10;;;5.80;98.00;;;;;;5054626;28;20458;-69
2021/10/10 01:47:30;;;;;;;3.43;1.37;;;5.70;98.00;;;;;;5054362;28;20497;-70
2021/10/10 01:49:57;;;;;;;1.53;1.53;;;5.60;98.00;;;;;;5054347;28;20513;-70
2021/10/10 01:52:24;;;;;;;1.30;1.20;;;5.50;98.00;;;;;;5054587;28;20983;-70
2021/10/10 01:54:51;;;;;;;1.20;1.00;;;5.50;98.00;;;;;;5054024;28;20564;-69
2021/10/10 01:57:19;;;;;;;1.60;1.33;;;5.40;98.00;;;;;;5054215;28;20493;-69
2021/10/10 01:59:46;;;;;;;1.20;1.10;;;5.40;98.00;;;;;;5036583;28;20488;-69
2021/10/10 02:02:13;;;;;;;1.30;1.27;;;5.30;98.00;;;;;;5054374;28;20459;-69
2021/10/10 02:04:40;;;;;;;2.33;1.50;;;5.40;98.00;;;;;;5053975;28;20487;-70
2021/10/10 02:07:07;;;;;;;1.80;1.10;;;5.40;98.00;;;;;;5054332;28;20984;-69
2021/10/10 02:09:36;;;;;;;4.47;1.40;;;5.50;98.00;;;;;;5054215;28;20487;-68
2021/10/10 02:12:04;;;;;;;2.00;1.90;;;5.50;98.00;;;;;;5053979;28;20559;-68
2021/10/10 02:14:34;;;;;;;1.57;1.30;;;5.60;98.00;;;;;;5053823;28;20521;-69
2021/10/10 02:17:01;;;;;;;1.53;1.50;;;5.50;98.00;;;;;;5053997;28;20465;-69
2021/10/10 02:19:28;;;;;;;1.60;1.40;;;5.50;98.00;;;;;;5053812;28;20514;-69
2021/10/10 02:21:55;;;;;;;1.70;1.10;;;5.30;98.00;;;;;;5053904;28;20477;-69
2021/10/10 02:24:22;;;;;;;1.40;1.20;;;5.30;98.00;;;;;;5036246;28;20508;-70
2021/10/10 02:26:49;;;;;;;3.77;1.80;;;5.20;98.00;;;;;;5053961;28;20541;-69
2021/10/10 02:29:17;;;;;;;1.73;1.30;;;5.30;98.00;;;;;;5053826;28;20450;-69
2021/10/10 02:31:45;;;;;;;1.40;1.20;;;5.20;98.00;;;;;;5053625;28;20480;-69
2021/10/10 02:34:13;;;;;;;1.27;1.17;;;5.30;98.00;;;;;;5053717;28;20485;-70
2021/10/10 02:36:42;;;;;;;1.20;1.20;;;5.30;98.00;;;;;;5036135;28;20454;-69
2021/10/10 02:39:10;;;;;;;2.13;1.30;;;5.30;98.00;;;;;;5053622;28;20459;-68
2021/10/10 02:41:37;;;;;;;1.73;1.30;;;5.30;98.00;;;;;;5053709;28;21102;-69
2021/10/10 02:44:05;;;;;;;1.87;1.50;;;5.20;98.00;;;;;;5053642;28;20489;-69
2021/10/10 02:46:33;;;;;;;1.57;1.37;;;5.20;98.00;;;;;;5053702;28;20508;-69
2021/10/10 02:49:02;;;;;;;3.50;1.40;;;5.10;98.00;;;;;;5053662;28;21022;-69
2021/10/10 02:51:30;;;;;;;1.87;1.63;;;5.10;98.00;;;;;;5036164;28;20945;-69
2021/10/10 02:53:57;;;;;;;2.27;2.00;;;5.00;98.00;;;;;;5052519;28;20460;-69
2021/10/10 02:56:24;;;;;;;1.30;1.20;;;5.00;98.00;;;;;;5052582;28;20568;-69
2021/10/10 02:58:51;;;;;;;2.07;1.20;;;5.00;98.00;;;;;;5052855;28;20449;-68
2021/10/10 03:01:22;;;;;;;1.20;1.07;;;5.10;98.00;;;;;;5052916;28;20487;-68
2021/10/10 03:03:49;;;;;;;1.83;1.70;;;5.10;98.00;;;;;;5053233;28;20852;-68
2021/10/10 03:06:17;;;;;;;1.20;1.00;;;5.00;98.00;;;;;;5035418;28;20449;-70
2021/10/10 03:08:44;;;;;;;1.30;1.20;;;5.30;98.00;;;;;;5052967;28;20454;-69
2021/10/10 03:11:11;;;;;;;1.80;1.40;;;5.40;98.00;;;;;;5035191;28;20516;-68
2021/10/10 03:13:38;;;;;;;1.93;1.50;;;5.40;98.00;;;;;;5052975;28;20519;-69
2021/10/10 03:16:05;;;;;;;4.00;1.43;;;5.50;98.00;;;;;;5035147;28;21101;-69
2021/10/10 03:18:33;;;;;;;2.13;1.30;;;5.60;98.00;;;;;;5052646;28;20917;-69
2021/10/10 03:21:00;;;;;;;1.20;1.00;;;5.60;98.00;;;;;;5052765;28;20490;-68
2021/10/10 03:23:28;;;;;;;3.73;2.53;;;5.50;98.00;;;;;;5052704;28;20549;-69
2021/10/10 03:25:55;;;;;;;1.60;1.30;;;5.40;98.00;;;;;;5051875;28;20480;-68
2021/10/10 03:28:23;;;;;;;2.83;1.93;;;5.20;98.00;;;;;;5052467;28;20508;-69
2021/10/10 03:30:50;;;;;;;1.30;1.10;;;5.10;98.00;;;;;;5052463;28;20845;-69
2021/10/10 03:33:17;;;;;;;1.63;1.30;;;5.20;98.00;;;;;;5034821;28;20490;-68
2021/10/10 03:35:44;;;;;;;5.90;1.93;;;5.20;98.00;;;;;;5052333;28;20600;-70
2021/10/10 03:38:11;;;;;;;1.20;1.10;;;5.20;98.00;;;;;;5052436;28;20465;-69
2021/10/10 03:40:39;;;;;;;1.20;1.10;;;4.90;98.00;;;;;;5052346;28;20984;-68
2021/10/10 03:43:06;;;;;;;1.20;1.10;;;4.80;98.00;;;;;;5034992;28;20507;-69
2021/10/10 03:45:35;;;;;;;1.20;1.00;;;4.70;98.00;;;;;;5052199;28;20888;-69
2021/10/10 03:48:02;;;;;;;1.40;1.20;;;4.60;98.00;;;;;;5052483;28;20512;-70
2021/10/10 03:50:29;;;;;;;3.00;1.57;;;4.50;98.00;;;;;;5052378;28;20492;-68
2021/10/10 03:52:56;;;;;;;1.20;1.10;;;4.50;98.00;;;;;;5034670;28;20500;-69
2021/10/10 03:58:14;;;;;;;1.80;1.50;;;4.20;98.00;;;;;;5046801;28;20453;-68
2021/10/10 04:00:41;;;;;;;2.17;1.60;;;4.20;98.00;;;;;;5051812;28;20457;-69
2021/10/10 04:03:10;;;;;;;2.70;1.53;;;4.30;98.00;;;;;;5052280;28;20458;-69
2021/10/10 04:05:41;;;;;;;2.03;1.40;;;4.50;98.00;;;;;;5051437;28;20464;-68
2021/10/10 04:08:10;;;;;;;2.17;1.30;;;4.40;98.00;;;;;;5052310;28;20864;-68
2021/10/10 04:10:37;;;;;;;3.20;1.33;;;4.40;98.00;;;;;;5034581;28;20458;-68
2021/10/10 04:13:06;;;;;;;2.33;1.50;;;4.40;98.00;;;;;;5052322;28;20489;-68
2021/10/10 04:15:36;;;;;;;1.20;1.20;;;4.30;98.00;;;;;;5052055;28;20514;-69
2021/10/10 04:18:03;;;;;;;2.00;1.53;;;4.40;98.00;;;;;;5051810;28;20496;-67
2021/10/10 04:20:30;;;;;;;1.40;1.10;;;4.30;98.00;;;;;;5052018;28;20600;-69
2021/10/10 04:22:57;;;;;;;2.23;1.50;;;4.30;98.00;;;;;;5051794;28;20494;-68
2021/10/10 04:25:24;;;;;;;1.47;1.37;;;4.20;98.00;;;;;;5051596;28;20509;-68
2021/10/10 04:27:51;;;;;;;1.20;1.20;;;4.20;98.00;;;;;;5051721;28;20465;-69
2021/10/10 04:30:19;;;;;;;1.30;1.17;;;4.40;98.00;;;;;;5051368;28;20523;-68
2021/10/10 04:32:47;;;;;;;1.57;1.47;;;4.60;98.00;;;;;;5051424;28;20861;-70
2021/10/10 04:35:14;;;;;;;1.63;1.53;;;4.60;98.00;;;;;;5051455;28;20557;-70
2021/10/10 04:37:42;;;;;;;1.20;1.10;;;4.30;98.00;;;;;;5033591;28;20448;-69
2021/10/10 04:40:11;;;;;;;1.30;1.20;;;4.30;98.00;;;;;;5051356;28;20494;-68
2021/10/10 04:42:39;;;;;;;2.77;1.67;;;4.30;98.00;;;;;;5051497;28;20805;-69
2021/10/10 04:45:07;;;;;;;1.27;1.17;;;4.40;98.00;;;;;;5051392;28;20489;-68
2021/10/10 04:47:36;;;;;;;1.20;1.20;;;4.60;98.00;;;;;;5051478;28;20454;-68
2021/10/10 04:50:05;;;;;;;2.40;2.20;;;4.40;98.00;;;;;;5051283;28;20485;-69
2021/10/10 04:52:32;;;;;;;2.17;1.60;;;4.30;98.00;;;;;;5051447;28;20860;-69
2021/10/10 04:54:59;;;;;;;1.93;1.43;;;4.20;98.00;;;;;;5051290;28;20493;-68
2021/10/10 04:57:27;;;;;;;1.20;1.17;;;4.20;98.00;;;;;;5051398;28;20511;-68
2021/10/10 04:59:54;;;;;;;1.50;1.27;;;4.20;98.00;;;;;;5033898;28;20454;-70
2021/10/10 05:02:23;;;;;;;1.20;1.10;;;4.20;98.00;;;;;;5051482;28;20502;-68
2021/10/10 05:04:51;;;;;;;3.07;1.70;;;4.10;98.00;;;;;;5051342;28;20454;-69
2021/10/10 05:07:20;;;;;;;1.40;1.30;;;4.00;98.00;;;;;;5051225;28;20517;-69
2021/10/10 05:09:47;;;;;;;1.20;1.20;;;4.10;98.00;;;;;;5051228;28;20462;-69
2021/10/10 05:12:14;;;;;;;2.73;1.30;;;4.00;98.00;;;;;;5051441;28;20933;-68
2021/10/10 05:14:41;;;;;;;1.20;1.00;;;4.10;98.00;;;;;;5051175;28;20465;-69
2021/10/10 05:17:09;;;;;;;1.80;1.40;;;4.10;98.00;;;;;;5035530;28;20576;-69
2021/10/10 05:19:35;;;;;;;2.03;1.30;;;4.20;98.00;;;;;;5055152;28;20507;-69
2021/10/10 05:22:03;;;;;;;1.20;1.00;;;4.20;98.00;;;;;;5054989;28;20492;-68
2021/10/10 05:24:32;;;;;;;1.20;1.07;;;4.10;98.00;;;;;;5055120;28;20486;-68
2021/10/10 05:27:00;;;;;;;1.20;1.13;;;4.10;98.00;;;;;;5054933;28;20498;-69
2021/10/10 05:29:27;;;;;;;1.20;1.00;;;4.20;98.00;;;;;;5055140;28;20458;-67
2021/10/10 05:31:54;;;;;;;1.30;1.20;;;4.40;98.00;;;;;;5055162;28;20458;-68
2021/10/10 05:34:21;;;;;;;1.30;1.20;;;4.40;98.00;;;;;;5037250;28;20515;-69
2021/10/10 05:36:48;;;;;;;1.57;1.20;;;4.40;98.00;;;;;;5054904;28;20496;-69
2021/10/10 05:39:15;;;;;;;2.03;1.83;;;4.30;98.00;;;;;;5054940;28;20483;-69
2021/10/10 05:41:44;;;;;;;2.77;2.30;;;4.30;98.00;;;;;;5054331;28;20458;-69
2021/10/10 05:44:11;;;;;;;3.77;1.47;;;4.40;98.00;;;;;;5037109;28;20492;-69
2021/10/10 05:46:38;;;;;;;2.43;2.23;;;4.40;98.00;;;;;;5054568;28;20453;-70
2021/10/10 05:49:05;;;;;;;1.30;1.20;;;4.50;98.00;;;;;;5054517;28;20949;-69
2021/10/10 05:51:32;;;;;;;1.50;1.23;;;4.30;98.00;;;;;;5054364;28;20504;-68
2021/10/10 05:53:59;;;;;;;1.33;1.20;;;4.10;98.00;;;;;;5054329;28;20508;-68
2021/10/10 05:56:26;;;;;;;1.27;1.23;;;4.00;98.00;;;;;;5054234;28;20894;-70
2021/10/10 05:59:01;;;;;;;2.13;1.50;;;4.00;98.00;;;;;;5054347;28;20503;-69
2021/10/10 06:01:28;;;;;;;1.20;1.20;;;4.20;98.00;;;;;;5054259;28;20515;-69
2021/10/10 06:03:55;;;;;;;2.07;1.33;;;4.20;98.00;;;;;;5036373;28;20497;-68
2021/10/10 06:06:22;;;;;;;1.60;1.27;;;4.00;98.00;;;;;;5054362;28;20497;-69
2021/10/10 06:08:49;;;;;;;2.27;1.70;;;4.00;98.00;;;;;;5054226;28;20516;-68
2021/10/10 06:11:17;;;;;;;1.70;1.30;;;4.10;98.00;;;;;;5054183;28;20489;-68
2021/10/10 06:13:45;;;;;;;1.40;1.17;;;4.10;98.00;;;;;;5020097;28;20457;-69
2021/10/10 06:16:13;;;;;;;3.60;1.97;;;4.20;98.00;;;;;;5054094;28;21066;-68
2021/10/10 06:18:40;;;;;;;1.27;1.27;;;4.20;98.00;;;;;;5053936;28;20455;-68
2021/10/10 06:21:08;;;;;;;3.00;2.20;;;4.20;98.00;;;;;;5053765;28;20458;-68
2021/10/10 06:23:35;;;;;;;6.43;1.87;;;4.30;98.00;;;;;;5053977;28;20550;-68
2021/10/10 06:26:02;;;;;;;1.50;1.40;;;4.30;98.00;;;;;;5053662;28;20509;-70
2021/10/10 06:28:31;;;;;;;6.43;1.37;;;4.50;98.00;;;;;;5035283;28;21113;-68
2021/10/10 06:30:58;;;;;;;1.63;1.40;;;4.60;98.00;;;;;;5053727;28;20466;-68
2021/10/10 06:33:26;;;;;;;1.30;1.00;;;4.70;98.00;;;;;;5053733;28;21549;-69
2021/10/10 06:35:53;;;;;;;2.23;1.37;;;4.70;98.00;;;;;;5053629;28;20540;-68
2021/10/10 06:38:23;;;;;;;1.20;1.00;;;4.70;98.00;;;;;;5053714;28;20991;-68
2021/10/10 06:40:50;;;;;;;1.40;1.20;;;4.80;98.00;;;;;;5053598;28;20465;-68
2021/10/10 06:43:17;;;;;;;1.40;1.30;;;4.80;98.00;;;;;;5035885;28;20864;-69
2021/10/10 06:45:44;;;;;;;3.03;1.67;;;4.90;98.00;;;;;;5053676;28;20817;-68
2021/10/10 06:48:11;;;;;;;2.17;1.57;;;5.00;98.00;;;;;;5053551;28;21148;-68
2021/10/10 06:50:40;;;;;;;1.80;1.23;;;5.10;98.00;;;;;;5053472;28;20471;-68
2021/10/10 06:53:07;;;;;;;2.07;1.50;;;5.10;98.00;;;;;;5053338;28;20527;-67
2021/10/10 06:55:34;;;;;;;9.33;1.67;;;5.10;98.00;;;;;;5053229;28;20488;-69
2021/10/10 06:58:01;;;;;;;1.20;1.17;;;5.10;98.00;;;;;;5053591;28;20933;-68
2021/10/10 07:00:28;;;;;;;1.40;1.40;;;5.20;98.00;;;;;;5053290;28;20537;-69
2021/10/10 07:02:55;;;;;;;1.20;1.20;;;5.20;98.00;;;;;;5053377;28;20485;-67
2021/10/10 07:05:22;;;;;;;1.30;1.10;;;5.20;98.00;;;;;;5053230;28;20458;-68
2021/10/10 07:07:50;;;;;;;1.20;1.00;;;5.20;98.00;;;;;;5052969;28;20949;-68
2021/10/10 07:10:17;;;;;;;4.50;1.87;;;5.30;98.00;;;;;;5053047;28;20989;-68
2021/10/10 07:12:44;;;;;;;1.20;1.00;;;5.50;98.00;;;;;;5053196;28;20455;-68
2021/10/10 07:15:13;;;;;;;1.20;1.10;;;5.40;98.00;;;;;;5052835;28;20986;-68
2021/10/10 07:17:40;;;;;;;1.30;1.20;;;5.40;98.00;;;;;;5052933;28;20875;-69
2021/10/10 07:20:11;;;;;;;2.03;1.60;;;5.40;98.00;;;;;;5052808;28;20519;-68
2021/10/10 07:22:45;;;;;;;1.27;1.20;;;5.60;98.00;;;;;;5052641;28;20457;-68
2021/10/10 07:25:14;;;;;;;1.63;1.20;;;5.70;98.00;;;;;;5052676;28;20453;-68
2021/10/10 07:27:43;;;;;;;1.30;1.10;;;5.80;98.00;;;;;;5052466;28;20566;-68
2021/10/10 07:30:14;;;;;;;3.40;1.93;;;5.80;98.00;;;;;;5052647;28;20952;-69
2021/10/10 07:32:42;;;;;;;2.33;1.17;;;5.70;98.00;;;;;;5052324;28;20452;-69
2021/10/10 07:35:11;;;;;;;1.20;1.10;;;5.90;98.00;;;;;;5052477;28;20520;-68
2021/10/10 07:37:38;;;;;;;2.50;1.73;;;6.10;98.00;;;;;;5052388;28;20539;-69
2021/10/10 07:40:06;;;;;;;2.73;1.60;;;6.10;98.00;;;;;;5052081;28;20451;-68
2021/10/10 07:42:35;;;;;;;2.33;1.47;;;6.20;98.00;;;;;;5052415;28;20451;-67
2021/10/10 07:45:07;;;;;;;1.43;1.33;;;6.30;98.00;;;;;;5052178;28;20463;-67
2021/10/10 07:47:50;;;;;;;4.43;1.87;;;6.40;98.00;;;;;;5052226;28;20578;-67
2021/10/10 07:50:19;;;;;;;2.07;1.20;;;6.50;98.00;;;;;;5052224;28;20492;-68
2021/10/10 07:52:48;;;;;;;1.90;1.70;;;6.70;98.00;;;;;;5052252;28;20513;-68
2021/10/10 07:55:15;;;;;;;1.20;1.10;;;6.90;98.00;;;;;;5051862;28;20517;-68
2021/10/10 07:57:44;;;;;;;1.40;1.30;;;7.00;98.00;;;;;;5052265;28;20486;-69
2021/10/10 08:00:12;;;;;;;1.40;1.20;;;7.10;98.00;;;;;;5052000;28;20954;-69
2021/10/10 08:02:53;;;;;;;5.23;2.00;;;7.30;98.00;;;;;;5052202;28;20515;-69
2021/10/10 08:05:21;;;;;;;2.13;1.70;;;7.50;98.00;;;;;;5052042;28;20464;-70
2021/10/10 08:07:50;;;;;;;1.33;1.30;;;7.70;98.00;;;;;;5052081;28;20458;-71
2021/10/10 08:10:17;;;;;;;4.50;1.30;;;7.80;98.00;;;;;;5051933;28;20458;-68
2021/10/10 08:12:46;;;;;;;1.20;1.00;;;8.00;98.00;;;;;;5034438;28;20540;-70
2021/10/10 08:15:14;;;;;;;1.57;1.30;;;8.00;98.00;;;;;;5051976;28;20500;-69
2021/10/10 08:17:41;;;;;;;3.57;1.40;;;8.00;98.00;;;;;;5034901;28;20513;-66
2021/10/10 08:20:10;;;;;;;2.50;2.03;;;8.10;98.00;;;;;;5034352;28;20891;-66
2021/10/10 08:22:38;;;;;;;1.87;1.30;;;8.20;98.00;;;;;;5034154;28;20450;-66
2021/10/10 08:25:11;;;;;;;1.67;1.57;;;8.20;98.00;;;;;;5051954;28;20530;-66
2021/10/10 08:27:40;;;;;;;1.50;1.33;;;8.30;98.00;;;;;;5051453;28;20481;-66
2021/10/10 08:30:14;;;;;;;1.97;1.57;;;8.40;98.00;;;;;;5052360;28;20518;-68
2021/10/10 08:32:43;;;;;;;1.20;1.20;;;8.50;98.00;;;;;;5051798;28;20858;-68
2021/10/10 08:35:11;;;;;;;1.60;1.40;;;8.60;98.00;;;;;;5066141;28;20452;-68
2021/10/10 08:37:38;;;;;;;1.20;1.10;;;8.70;98.00;;;;;;5053673;28;20987;-68
2021/10/10 08:40:06;;;;;;;2.23;1.63;;;8.90;98.00;;;;;;5071345;28;20481;-69
2021/10/10 08:42:36;;;;;;;1.63;1.57;;;9.00;98.00;;;;;;5071463;28;20515;-69
2021/10/10 08:45:07;;;;;;;1.93;1.50;;;9.20;98.00;;;;;;5070861;28;20493;-68
2021/10/10 08:47:42;;;;;;;2.60;1.53;;;9.40;98.00;;;;;;5070794;28;20527;-68
2021/10/10 08:50:15;;;;;;;2.67;1.50;;;9.60;98.00;;;;;;5070593;28;20536;-68
2021/10/10 08:52:43;;;;;;;2.17;1.60;;;9.90;98.00;;;;;;5074205;28;20976;-69
2021/10/10 08:55:10;;;;;;;2.27;1.47;;;10.00;98.00;;;;;;5075632;28;20464;-69
2021/10/10 08:57:37;;;;;;;3.73;1.90;;;10.20;98.00;;;;;;5075567;28;20578;-69
2021/10/10 09:00:07;;;;;;;3.57;2.10;;;10.30;98.00;;;;;;5075399;28;20486;-68
2021/10/10 09:02:38;;;;;;;2.80;1.63;;;10.50;98.00;;;;;;5075507;28;20477;-68
2021/10/10 09:05:09;;;;;;;3.30;2.50;;;10.60;98.00;;;;;;5075363;28;20452;-68
2021/10/10 09:07:36;;;;;;;2.63;2.00;;;10.80;98.00;;;;;;5075507;28;20854;-68
2021/10/10 09:10:17;;;;;;;1.93;1.83;;;11.00;98.00;;;;;;5075217;28;20531;-69
2021/10/10 09:12:44;;;;;;;3.40;1.60;;;11.10;98.00;;;;;;5075280;28;20450;-68
2021/10/10 09:15:15;;;;;;;3.10;2.10;;;11.30;98.00;;;;;;5057331;28;20997;-69
2021/10/10 09:17:55;;;;;;;5.23;1.97;;;11.60;98.00;;;;;;5075278;28;20983;-69
2021/10/10 09:20:28;;;;;;;1.97;1.67;;;11.60;98.00;;;;;;5075169;28;20467;-68
2021/10/10 09:22:55;;;;;;;3.97;1.80;;;11.80;98.00;;;;;;5075304;28;20464;-68
2021/10/10 09:25:21;;;;;;;6.57;2.63;;;11.90;98.00;;;;;;5075089;28;20484;-69
2021/10/10 09:27:49;;;;;;;2.77;1.87;;;12.00;98.00;;;;;;5075065;28;21013;-68
2021/10/10 09:30:19;;;;;;;2.50;1.80;;;12.30;98.00;;;;;;5075000;28;20805;-69
2021/10/10 09:32:54;;;;;;;2.70;1.83;;;12.60;98.00;;;;;;5075331;28;20452;-68
2021/10/10 09:35:27;;;;;;;3.13;1.80;;;12.80;98.00;;;;;;5075191;28;20508;-68
2021/10/10 09:38:11;;;;;;;2.10;1.83;;;13.10;98.00;;;;;;5074892;28;20589;-69
2021/10/10 09:40:44;;;;;;;1.90;1.80;;;13.00;98.00;;;;;;5075038;28;20861;-69
2021/10/10 09:43:11;;;;;;;1.20;1.20;;;13.10;98.00;;;;;;5074777;28;20464;-67
2021/10/10 09:45:42;;;;;;;2.80;2.07;;;13.40;98.00;;;;;;5074755;28;20539;-69
2021/10/10 09:48:11;;;;;;;2.87;2.10;;;13.70;98.00;;;;;;5074710;28;20521;-68
2021/10/10 09:50:38;;;;;;;2.87;1.70;;;13.90;98.00;;;;;;5074466;28;20454;-69
2021/10/10 09:53:07;;;;;;;3.13;2.53;;;14.20;98.00;;;;;;5074548;28;20555;-68
2021/10/10 09:55:36;;;;;;;3.20;2.20;;;14.40;98.00;;;;;;5074425;28;20452;-68
2021/10/10 09:58:04;;;;;;;2.00;1.73;;;14.60;97.50;;;;;;5074217;28;20492;-69
2021/10/10 10:00:33;;;;;;;3.90;2.43;;;14.70;97.60;;;;;;5074258;28;20954;-69
2021/10/10 10:03:07;;;;;;;3.93;2.50;;;14.80;96.80;;;;;;5072861;28;20589;-69
2021/10/10 10:05:39;;;;;;;6.33;2.73;;;14.90;96.20;;;;;;5074096;28;21190;-69
2021/10/10 10:08:07;;;;;;;3.00;2.20;;;15.00;95.60;;;;;;5074139;28;20533;-68
2021/10/10 10:10:35;;;;;;;1.80;1.73;;;15.20;96.30;;;;;;5074005;28;20490;-68
2021/10/10 10:13:04;;;;;;;1.93;1.73;;;15.30;94.30;;;;;;5074151;28;20452;-69
2021/10/10 10:15:32;;;;;;;3.37;2.23;;;15.30;92.50;;;;;;5074098;28;20453;-69
2021/10/10 10:18:00;;;;;;;4.93;2.07;;;15.50;92.90;;;;;;5074089;28;20486;-68
2021/10/10 10:20:29;;;;;;;2.10;1.90;;;15.60;92.90;;;;;;5073821;28;20456;-68
2021/10/10 10:22:59;;;;;;;3.03;1.70;;;15.70;92.50;;;;;;5073806;28;20485;-68
2021/10/10 10:25:28;;;;;;;1.87;1.70;;;15.70;91.80;;;;;;5055929;28;20488;-69
2021/10/10 10:27:56;;;;;;;3.60;2.67;;;15.70;91.00;;;;;;5073388;28;20557;-68
2021/10/10 10:30:25;;;;;;;2.17;1.80;;;15.70;89.40;;;;;;5073696;28;20496;-69
2021/10/10 10:32:54;;;;;;;2.90;2.10;;;15.80;90.30;;;;;;5073851;28;20825;-68
2021/10/10 10:35:22;;;;;;;2.43;1.97;;;16.10;89.80;;;;;;5055633;28;20466;-69
2021/10/10 10:38:08;;;;;;;3.57;2.40;;;16.30;90.60;;;;;;5073779;28;20515;-69
2021/10/10 10:40:39;;;;;;;2.63;2.20;;;16.40;88.50;;;;;;5072339;28;20451;-69
2021/10/10 10:43:07;;;;;;;6.57;2.00;;;16.60;89.40;;;;;;5073764;28;20492;-69
2021/10/10 10:45:37;;;;;;;3.13;2.40;;;16.60;87.70;;;;;;5073463;28;20454;-68
2021/10/10 10:48:07;;;;;;;2.53;2.17;;;16.60;87.90;;;;;;5073650;28;20498;-69
2021/10/10 10:50:37;;;;;;;2.70;2.13;;;17.00;88.20;;;;;;5073437;28;20455;-69
2021/10/10 10:53:06;;;;;;;2.83;2.13;;;17.10;86.00;;;;;;5073410;28;20466;-69
2021/10/10 10:55:36;;;;;;;3.13;2.20;;;17.10;85.80;;;;;;5073071;28;20525;-69
2021/10/10 10:58:09;;;;;;;2.73;2.33;;;17.30;84.50;;;;;;5073361;28;20512;-68
2021/10/10 11:00:38;;;;;;;2.80;2.07;;;17.40;85.00;;;;;;5073400;28;20555;-68
2021/10/10 11:03:14;;;;;;;2.40;2.20;;;17.30;83.30;;;;;;5074240;28;20470;-69
2021/10/10 11:05:49;;;;;;;2.67;2.13;;;17.50;82.80;;;;;;5073371;28;20458;-68
2021/10/10 11:08:37;;;;;;;4.50;2.37;;;17.70;82.80;;;;;;5055774;28;20454;-68
2021/10/10 11:11:24;;;;;;;2.13;1.93;;;17.80;82.30;;;;;;5072933;28;20455;-69
2021/10/10 11:13:54;;;;;;;1.40;1.40;;;17.90;81.40;;;;;;5072687;28;20460;-68
2021/10/10 11:16:29;;;;;;;3.53;1.90;;;18.20;82.50;;;;;;5072599;28;20471;-68
2021/10/10 11:18:57;;;;;;;2.80;2.50;;;18.40;82.00;;;;;;5072354;28;20488;-69
2021/10/10 11:21:25;;;;;;;3.40;2.47;;;18.80;81.00;;;;;;5072497;28;20509;-69
2021/10/10 11:23:54;;;;;;;4.00;2.20;;;19.00;80.70;;;;;;5072676;28;20488;-69
2021/10/10 11:26:22;;;;;;;4.20;2.50;;;19.10;78.70;;;;;;5072125;28;20523;-69
2021/10/10 11:28:52;;;;;;;4.77;2.30;;;19.30;79.50;;;;;;5072618;28;20488;-69
2021/10/10 11:31:21;;;;;;;1.87;1.70;;;19.40;77.10;;;;;;5072568;28;20518;-70
2021/10/10 11:33:55;;;;;;;4.40;2.97;;;19.50;77.50;;;;;;5072558;28;20543;-70
2021/10/10 11:36:32;;;;;;;2.63;2.40;;;19.60;78.20;;;;;;5072429;28;20995;-70
2021/10/10 11:38:59;;;;;;;2.57;1.70;;;19.60;78.70;;;;;;5072517;28;20498;-70
2021/10/10 11:41:28;;;;;;;3.33;2.30;;;19.50;77.60;;;;;;5072217;28;20499;-70
2021/10/10 11:44:07;;;;;;;2.20;1.80;;;19.40;78.00;;;;;;5072608;28;20492;-71
2021/10/10 11:47:09;;;;;;;2.50;2.03;;;19.40;78.40;;;;;;5072262;28;20900;-72
2021/10/10 11:49:39;;;;;;;3.80;2.20;;;19.30;76.00;;;;;;5072222;28;20452;-70
2021/10/10 11:52:16;;;;;;;1.90;1.90;;;19.20;77.20;;;;;;5072328;28;20514;-71
2021/10/10 11:54:44;;;;;;;2.93;2.17;;;19.10;78.20;;;;;;5072447;28;20800;-70
2021/10/10 11:57:12;;;;;;;2.10;1.93;;;19.00;78.50;;;;;;5072025;28;20481;-70
2021/10/10 11:59:50;;;;;;;3.83;2.27;;;18.90;79.30;;;;;;5072251;28;20464;-70
2021/10/10 12:02:18;;;;;;;2.03;1.90;;;18.80;79.90;;;;;;5071813;28;20457;-71
2021/10/10 12:04:46;;;;;;;2.80;2.03;;;18.60;79.40;;;;;;5072014;28;20510;-70
2021/10/10 12:07:13;;;;;;;3.50;2.27;;;18.50;81.10;;;;;;5072242;28;20484;-71
2021/10/10 12:09:50;;;;;;;4.37;2.20;;;18.60;80.80;;;;;;5072060;28;20457;-71
2021/10/10 12:12:20;;;;;;;2.43;1.93;;;18.50;81.40;;;;;;5071857;28;20457;-70
2021/10/10 12:14:50;;;;;;;3.83;2.30;;;18.50;80.30;;;;;;5035224;28;20470;-70
2021/10/10 12:17:34;;;;;;;4.67;2.13;;;18.40;81.50;;;;;;5047201;28;20454;-70
2021/10/10 12:20:05;;;;;;;3.20;2.23;;;18.00;81.40;;;;;;5035557;28;21010;-70
2021/10/10 12:22:32;;;;;;;4.43;2.63;;;17.80;83.10;;;;;;5051894;28;20462;-71
2021/10/10 12:24:59;;;;;;;2.47;2.07;;;17.50;82.70;;;;;;5051908;28;20454;-70
2021/10/10 12:27:28;;;;;;;1.80;1.73;;;17.30;82.90;;;;;;5050910;28;20474;-70
2021/10/10 12:29:57;;;;;;;2.30;1.70;;;17.20;83.10;;;;;;5051778;28;20461;-70
2021/10/10 12:32:27;;;;;;;4.43;2.30;;;17.20;83.10;;;;;;5051344;28;20476;-70
2021/10/10 12:35:15;;;;;;;2.13;1.50;;;17.40;83.30;;;;;;5051815;28;21022;-70
2021/10/10 12:37:51;;;;;;;1.80;1.70;;;17.50;82.80;;;;;;5051207;28;20470;-70
2021/10/10 12:40:26;;;;;;;1.93;1.50;;;17.50;83.00;;;;;;5051645;28;20544;-70
2021/10/10 12:42:54;;;;;;;3.47;2.30;;;17.70;82.70;;;;;;5051531;28;20456;-71
2021/10/10 12:45:28;;;;;;;1.97;1.70;;;17.80;82.30;;;;;;5051504;28;20888;-70
2021/10/10 12:48:04;;;;;;;3.20;2.10;;;17.80;82.30;;;;;;5051237;28;20456;-71
2021/10/10 12:50:33;;;;;;;2.43;2.00;;;17.80;81.60;;;;;;5051437;28;20507;-70
2021/10/10 12:53:00;;;;;;;3.57;2.17;;;17.80;82.40;;;;;;5051649;28;20464;-71
2021/10/10 12:55:30;;;;;;;3.20;2.23;;;17.60;83.20;;;;;;5051303;28;20457;-71
2021/10/10 12:57:58;;;;;;;5.73;2.60;;;17.70;83.10;;;;;;5051334;28;20489;-71
2021/10/10 13:00:28;;;;;;;2.43;1.70;;;17.90;83.30;;;;;;5051298;28;20535;-71
2021/10/10 13:02:56;;;;;;;2.90;2.00;;;18.30;81.70;;;;;;5051495;28;20450;-70
2021/10/10 13:05:23;;;;;;;3.67;2.30;;;18.40;80.40;;;;;;5051299;28;20465;-71